Skip Navigation Links
NOAA logo - Click to go to the NOAA homepage
NOAA's National Weather Service
Alaska Aviation Weather Unit
  NWS logo - Click to go to the NWS homepage
Left Navbar Graphic     21 AKDT = 05 GMT

   
NOAA is celebrating 200 years of science, service, and stewardship. Visit the NOAA 200th celebration Web site to learn more.
USA.gov is the U.S. Government's official Web portal to all Federal, state and local government Web resources and services.
Facebook
NWS on Facebook

Important Change Regarding the AAWU Web Presence

 

Over the last several months, the AAWU has been working to navigate its webpages to a nationally supported server. Security, as well as other needs, have necessitated the change.  In the process, we have made an effort to enhance the functionality of our website, as well as some of our products. As of June 27, 2017, aawu.arh.noaa.gov will be discontinued. The new AAWU web address is weather.gov/aawu. It is now live and will run in-parallel with the old site until it is discontinued. Please send any feedback or questions regarding the new webpages to nws.ar.aawu.webauthors@noaa.gov.  Thank you for your patience during this time of transition.
AAWU Home :: Display TAF Add Bookmark
METAR PASH 242316Z AUTO 21014G18KT 10SM BKN029 OVC037 11/04 A3007 RMK
     AO1 PNO=

METAR PASH 242336Z AUTO 21015KT 10SM OVC029 11/04 A3007 RMK AO1 PNO=

METAR PASH 242356Z AUTO 22017G21KT 10SM OVC033 11/04 A3007 RMK AO1
 54000 PNO=

METAR PASH 250016Z AUTO 22014G20KT 10SM OVC033 11/04 A3007 RMK AO1
     PNO=

METAR PASH 250036Z AUTO 21015G20KT 10SM OVC031 11/04 A3008 RMK AO1
 PNO=

METAR PASH 250056Z AUTO 21017KT 10SM OVC029 10/04 A3007 RMK AO1 PNO=

METAR PASH 250116Z AUTO 20015G21KT 10SM OVC029 10/05 A3007 RMK AO1
     PNO=

METAR PASH 250136Z AUTO 20017KT 10SM BKN029 OVC037 11/05 A3007 RMK AO1
     PNO=

PASH 250156Z AUTO 20015G20KT 10SM BKN031 OVC038 11/04 A3008 RMK
     AO1 PNO=

METAR PASH 250216Z AUTO 21018KT 10SM SCT034 OVC042 10/04 A3007 RMK AO1
     PNO=

METAR PASH 250236Z AUTO 21014G21KT 10SM OVC044 11/04 A3007 RMK AO1
     PNO=

METAR PASH 250256Z AUTO 20020KT 10SM OVC046 11/04 A3007 RMK AO1
 54000 PNO=

METAR PASH 250316Z AUTO 21019KT 10SM FEW030 BKN046 11/04 A3007 RMK AO1
     PNO=

METAR PASH 250336Z AUTO 20019G23KT 10SM CLR 10/04 A3007 RMK AO1 PNO=

METAR PASH 250356Z AUTO 20018G22KT 10SM CLR 11/04 A3006 RMK AO1 PNO=

METAR PASH 250416Z AUTO 21017G20KT 10SM CLR 10/04 A3006 RMK AO1 PNO=

METAR PASH 250436Z AUTO 20018G22KT 10SM BKN065 11/04 A3006 RMK AO1
     PNO=

METAR PASH 250456Z AUTO 20017KT 10SM OVC065 10/04 A3006 RMK AO1 PNO=


NOAA's National Weather Service
Alaska Aviation Weather Unit
6930 Sand Lake Road
Anchorage, AK 99502-1845
Disclaimer
Credits
Glossary
Privacy Policy
About Us
Career Opportunities
Contact AAWU Internet Services Site last modified: April, 17th 2012